createdAt,value
2019-06-20T00:00:42.695Z,11.10
2019-06-20T00:03:11.356Z,10.00
2019-06-20T00:05:38.796Z,12.73
2019-06-20T00:48:24.088Z,13.47
2019-06-20T00:50:51.551Z,12.10
2019-06-20T00:53:19.564Z,13.20
2019-06-20T00:55:47.310Z,14.77
2019-06-20T00:58:14.333Z,17.27
2019-06-20T01:00:41.619Z,11.73
2019-06-20T01:03:09.031Z,12.37
2019-06-20T01:05:36.495Z,12.60
2019-06-20T01:08:03.846Z,16.03
2019-06-20T01:10:31.544Z,16.30
2019-06-20T01:12:58.869Z,13.57
2019-06-20T01:15:26.358Z,11.80
2019-06-20T01:17:53.394Z,12.57
2019-06-20T01:20:21.808Z,13.30
2019-06-20T01:22:49.189Z,13.90
2019-06-20T01:25:28.520Z,14.00
2019-06-20T01:27:55.906Z,14.77
2019-06-20T01:30:22.915Z,13.37
2019-06-20T01:32:50.622Z,11.60
2019-06-20T01:35:17.974Z,11.10
2019-06-20T01:37:45.703Z,17.60
2019-06-20T01:40:12.845Z,12.57
2019-06-20T01:42:40.251Z,17.80
2019-06-20T01:45:07.831Z,13.20
2019-06-20T01:47:34.991Z,13.07
2019-06-20T01:50:02.374Z,18.83
2019-06-20T01:52:30.543Z,13.80
2019-06-20T01:54:57.601Z,15.83
2019-06-20T01:57:25.446Z,18.97
2019-06-20T01:59:52.506Z,17.07
2019-06-20T02:02:20.300Z,13.17
2019-06-20T02:04:47.606Z,15.13
2019-06-20T02:07:15.318Z,14.90
2019-06-20T02:09:42.646Z,14.87
2019-06-20T02:12:09.736Z,17.80
2019-06-20T02:14:37.054Z,15.70
2019-06-20T02:17:04.426Z,14.17
2019-06-20T02:19:32.209Z,12.70
2019-06-20T02:21:59.993Z,17.13
2019-06-20T02:24:27.736Z,13.20
2019-06-20T02:26:55.508Z,15.13
2019-06-20T02:29:22.589Z,17.70
2019-06-20T02:31:50.140Z,16.37
2019-06-20T02:34:17.267Z,15.17
2019-06-20T02:36:45.216Z,14.03
2019-06-20T02:39:12.620Z,19.57
2019-06-20T02:41:40.777Z,18.77
2019-06-20T02:44:28.569Z,14.50
2019-06-20T02:46:39.331Z,14.27
2019-06-20T02:49:07.128Z,19.30
2019-06-20T02:51:34.907Z,13.80
2019-06-20T02:54:02.305Z,18.63
2019-06-20T02:56:30.498Z,19.83
2019-06-20T02:58:57.854Z,16.07
2019-06-20T03:01:26.170Z,14.00
2019-06-20T03:03:53.539Z,16.70
2019-06-20T03:06:20.927Z,13.77
2019-06-20T03:08:48.231Z,14.90
2019-06-20T03:11:15.204Z,17.23
2019-06-20T03:13:42.916Z,20.80
2019-06-20T03:16:10.572Z,21.33
2019-06-20T03:18:38.414Z,15.90
2019-06-20T03:21:06.197Z,16.73
2019-06-20T03:23:33.591Z,14.37
2019-06-20T03:26:01.326Z,18.97
2019-06-20T03:28:29.168Z,15.93
2019-06-20T03:30:57.281Z,15.27
2019-06-20T03:33:24.638Z,19.23
2019-06-20T03:35:52.349Z,18.47
2019-06-20T03:38:19.697Z,14.30
2019-06-20T03:40:47.828Z,16.80
2019-06-20T03:43:16.010Z,19.27
2019-06-20T03:45:43.776Z,17.60
2019-06-20T03:48:11.092Z,18.47
2019-06-20T03:50:38.984Z,20.17
2019-06-20T03:53:06.734Z,20.60
2019-06-20T03:55:34.616Z,17.87
2019-06-20T03:58:02.149Z,16.57
2019-06-20T04:00:32.446Z,25.60
2019-06-20T04:02:59.957Z,21.10
2019-06-20T04:05:27.059Z,23.80
2019-06-20T04:07:54.765Z,22.57
2019-06-20T04:10:22.174Z,21.70
2019-06-20T04:12:49.178Z,23.60
2019-06-20T04:15:19.422Z,26.60
2019-06-20T04:20:31.170Z,24.97
2019-06-20T04:22:59.357Z,26.87
2019-06-20T04:25:27.073Z,28.10
2019-06-20T04:27:54.694Z,25.27
2019-06-20T04:30:22.471Z,35.83
2019-06-20T04:32:50.554Z,25.80
2019-06-20T04:35:17.936Z,27.43
2019-06-20T04:37:45.993Z,29.00
2019-06-20T04:40:14.847Z,28.00
2019-06-20T04:42:42.232Z,29.77
2019-06-20T04:45:35.437Z,31.83
2019-06-20T04:48:01.491Z,36.27
2019-06-20T04:50:29.179Z,29.27
2019-06-20T04:52:56.632Z,27.80
2019-06-20T04:55:24.399Z,32.07
2019-06-20T04:57:52.048Z,48.50
2019-06-20T05:00:20.061Z,36.10
2019-06-20T05:02:47.063Z,33.27
2019-06-20T05:05:15.036Z,40.87
2019-06-20T05:07:42.392Z,38.33
2019-06-20T05:10:10.695Z,35.80
2019-06-20T05:12:38.096Z,43.17
2019-06-20T05:15:06.470Z,42.83
2019-06-20T05:17:33.910Z,44.77
2019-06-20T05:20:04.157Z,39.43
2019-06-20T05:22:31.957Z,48.03
2019-06-20T05:24:59.566Z,40.03
2019-06-20T05:27:27.006Z,41.30
2019-06-20T05:29:55.369Z,47.60
2019-06-20T05:32:23.139Z,44.13
2019-06-20T05:34:50.229Z,46.43
2019-06-20T05:37:17.564Z,54.57
2019-06-20T05:39:44.894Z,48.47
2019-06-20T05:42:12.919Z,47.07
2019-06-20T05:44:40.597Z,48.93
2019-06-20T05:47:12.638Z,44.20
2019-06-20T05:49:37.395Z,48.33
2019-06-20T05:52:05.189Z,41.60
2019-06-20T05:54:32.956Z,46.17
2019-06-20T05:57:03.312Z,49.20
2019-06-20T05:59:29.334Z,48.30
2019-06-20T06:01:56.585Z,50.17
2019-06-20T06:04:24.496Z,52.87
2019-06-20T06:06:52.369Z,49.13
2019-06-20T06:09:19.806Z,50.17
2019-06-20T06:11:47.134Z,48.90
2019-06-20T06:14:14.619Z,46.33
2019-06-20T06:16:44.226Z,53.23
2019-06-20T06:19:12.061Z,49.03
2019-06-20T06:21:39.729Z,53.17
2019-06-20T06:24:06.744Z,48.50
2019-06-20T06:26:33.801Z,51.17
2019-06-20T06:29:01.188Z,48.10
2019-06-20T06:31:28.199Z,50.33
2019-06-20T06:33:55.885Z,44.70
2019-06-20T06:36:23.399Z,49.33
2019-06-20T06:38:51.842Z,49.20
2019-06-20T06:41:19.281Z,48.57
2019-06-20T06:43:46.618Z,51.37
2019-06-20T06:46:13.979Z,52.00
2019-06-20T06:48:41.754Z,48.50
2019-06-20T06:51:09.146Z,52.93
2019-06-20T06:53:36.892Z,56.10
2019-06-20T06:56:03.968Z,56.37
2019-06-20T06:58:31.688Z,50.90
2019-06-20T07:00:59.475Z,49.40
2019-06-20T07:03:26.824Z,54.77
2019-06-20T07:05:54.215Z,56.47
2019-06-20T07:08:21.646Z,55.53
2019-06-20T07:10:49.046Z,55.40
2019-06-20T07:13:16.749Z,57.10
2019-06-20T07:15:43.856Z,57.40
2019-06-20T07:18:11.620Z,56.90
2019-06-20T07:20:39.439Z,56.67
2019-06-20T07:23:06.787Z,57.07
2019-06-20T07:25:34.255Z,51.77
2019-06-20T07:28:01.717Z,54.63
2019-06-20T07:30:30.193Z,54.00
2019-06-20T07:32:57.614Z,56.30
2019-06-20T07:35:25.741Z,52.97
2019-06-20T07:37:53.346Z,52.73
2019-06-20T07:40:21.545Z,52.27
2019-06-20T07:42:49.301Z,47.83
2019-06-20T07:45:18.744Z,50.93
2019-06-20T07:47:46.185Z,54.10
2019-06-20T07:50:13.931Z,54.10
2019-06-20T07:52:41.329Z,47.50
2019-06-20T07:55:09.592Z,43.27
2019-06-20T07:57:37.510Z,40.70
2019-06-20T08:00:06.132Z,39.10
2019-06-20T08:02:33.439Z,43.97
2019-06-20T08:05:01.139Z,52.03
2019-06-20T08:07:29.012Z,40.30
2019-06-20T08:09:56.028Z,39.07
2019-06-20T08:12:23.380Z,28.63
2019-06-20T08:14:51.430Z,34.53
2019-06-20T08:17:34.402Z,34.03
2019-06-20T08:19:48.428Z,38.10
2019-06-20T08:22:15.894Z,32.97
2019-06-20T08:24:43.286Z,34.67
2019-06-20T08:27:10.383Z,40.60
2019-06-20T08:29:37.480Z,37.77
2019-06-20T08:32:04.898Z,42.23
2019-06-20T08:34:32.563Z,40.70
2019-06-20T08:37:00.548Z,39.07
2019-06-20T08:39:29.375Z,38.50
2019-06-20T08:41:59.173Z,38.47
2019-06-20T08:44:27.072Z,38.43
2019-06-20T08:46:56.415Z,40.23
2019-06-20T08:49:23.814Z,31.53
2019-06-20T08:51:51.330Z,39.20
2019-06-20T08:54:19.208Z,34.00
2019-06-20T08:56:47.390Z,41.40
2019-06-20T08:59:24.539Z,44.00
2019-06-20T09:01:44.750Z,39.43
2019-06-20T09:04:12.153Z,42.03
2019-06-20T09:06:39.849Z,45.77
2019-06-20T09:09:07.628Z,39.23
2019-06-20T09:11:34.671Z,45.93
2019-06-20T09:14:03.992Z,40.13
2019-06-20T09:16:31.329Z,40.30
2019-06-20T09:18:58.705Z,48.00
2019-06-20T09:21:25.720Z,44.30
2019-06-20T09:23:54.204Z,43.37
2019-06-20T09:26:22.350Z,38.43
2019-06-20T09:28:51.012Z,44.60
2019-06-20T09:31:18.626Z,37.07
2019-06-20T09:33:45.958Z,36.07
2019-06-20T09:36:13.659Z,37.30
2019-06-20T09:38:41.001Z,42.77
2019-06-20T09:41:08.806Z,46.37
2019-06-20T09:43:36.358Z,41.53
2019-06-20T09:46:03.567Z,40.77
2019-06-20T09:48:30.930Z,41.17
2019-06-20T09:50:58.637Z,36.97
2019-06-20T09:53:26.680Z,39.07
2019-06-20T09:55:54.027Z,39.17
2019-06-20T09:58:21.799Z,36.80
2019-06-20T10:00:49.298Z,43.00
2019-06-20T10:03:16.988Z,45.43
2019-06-20T10:05:44.347Z,39.70
2019-06-20T10:08:11.418Z,38.50
2019-06-20T10:10:38.896Z,38.93
2019-06-20T10:13:06.437Z,36.47
2019-06-20T10:15:36.123Z,37.63
2019-06-20T10:18:03.807Z,34.10
2019-06-20T10:20:30.823Z,36.20
2019-06-20T10:22:58.618Z,32.73
2019-06-20T10:25:26.013Z,29.50
2019-06-20T10:27:53.919Z,33.63
2019-06-20T10:30:21.842Z,34.10
2019-06-20T10:32:49.167Z,33.27
2019-06-20T10:35:16.617Z,29.63
2019-06-20T10:37:45.576Z,27.77
2019-06-20T10:40:14.452Z,24.37
2019-06-20T10:42:41.883Z,22.30
2019-06-20T10:45:10.728Z,19.90
2019-06-20T10:47:38.648Z,17.50
2019-06-20T10:50:06.870Z,17.77
2019-06-20T10:52:33.880Z,17.50
2019-06-20T10:55:02.133Z,15.80
2019-06-20T10:57:29.846Z,15.40
2019-06-20T10:59:57.216Z,14.40
2019-06-20T11:02:24.518Z,15.40
2019-06-20T11:04:52.188Z,15.90
2019-06-20T11:07:19.576Z,13.47
2019-06-20T11:09:47.177Z,14.63
2019-06-20T11:12:15.369Z,12.90
2019-06-20T11:14:44.133Z,17.37
2019-06-20T11:17:11.381Z,12.77
2019-06-20T11:19:39.757Z,13.57
2019-06-20T11:22:07.611Z,14.53
2019-06-20T11:24:34.662Z,12.90
2019-06-20T11:27:02.988Z,12.30
2019-06-20T11:29:30.382Z,9.67
2019-06-20T11:31:57.480Z,7.77
2019-06-20T11:34:24.540Z,9.27
2019-06-20T11:36:51.591Z,9.97
2019-06-20T11:39:18.647Z,8.67
2019-06-20T11:41:46.046Z,10.60
2019-06-20T11:44:13.120Z,14.20
2019-06-20T11:46:40.958Z,12.23
2019-06-20T11:49:08.304Z,11.10
2019-06-20T11:51:35.985Z,13.23
2019-06-20T11:54:03.454Z,11.37
2019-06-20T11:56:30.908Z,11.60
2019-06-20T11:58:58.212Z,10.43
2019-06-20T12:01:32.863Z,11.10
2019-06-20T12:03:55.214Z,11.80
2019-06-20T12:06:23.304Z,12.63
2019-06-20T12:08:51.787Z,12.60
2019-06-20T12:11:19.679Z,10.27
2019-06-20T12:13:48.497Z,11.87
2019-06-20T12:16:16.273Z,11.37
2019-06-20T12:18:45.158Z,10.60
2019-06-20T12:21:12.389Z,14.50
2019-06-20T12:23:40.659Z,15.50
2019-06-20T12:26:08.571Z,15.30
2019-06-20T12:28:36.089Z,14.27
2019-06-20T12:31:18.579Z,14.60
2019-06-20T12:33:32.655Z,13.70
2019-06-20T12:36:00.416Z,13.77
2019-06-20T12:38:48.365Z,11.50
2019-06-20T12:41:16.112Z,10.23
2019-06-20T12:43:44.437Z,7.57
2019-06-20T12:46:12.040Z,7.03
2019-06-20T12:48:41.172Z,5.50
2019-06-20T12:51:08.638Z,5.47
2019-06-20T12:53:37.538Z,6.50
2019-06-20T12:56:05.754Z,5.17
2019-06-20T12:58:33.384Z,7.87
2019-06-20T13:01:00.755Z,6.23
2019-06-20T13:03:28.173Z,5.90
2019-06-20T13:05:55.432Z,5.97
2019-06-20T13:08:23.189Z,4.90
2019-06-20T13:10:51.399Z,8.53
2019-06-20T13:13:18.758Z,6.10
2019-06-20T13:15:46.938Z,5.70
2019-06-20T13:18:14.075Z,6.13
2019-06-20T13:20:42.317Z,7.63
2019-06-20T13:23:09.881Z,7.33
2019-06-20T13:25:37.759Z,6.23
2019-06-20T13:28:07.046Z,5.20
2019-06-20T13:30:34.756Z,5.23
2019-06-20T13:33:03.374Z,5.03
2019-06-20T13:35:30.414Z,4.33
2019-06-20T13:37:57.761Z,5.57
2019-06-20T13:40:25.489Z,5.90
2019-06-20T13:42:54.678Z,4.90
2019-06-20T13:45:23.993Z,4.80
2019-06-20T13:47:51.504Z,5.40
2019-06-20T13:50:19.746Z,6.50
2019-06-20T13:52:49.194Z,4.43
2019-06-20T13:55:15.941Z,5.70
2019-06-20T13:57:45.335Z,4.30
2019-06-20T14:00:13.219Z,6.60
2019-06-20T14:02:41.385Z,4.37
2019-06-20T14:05:09.993Z,5.07
2019-06-20T14:07:37.085Z,6.13
2019-06-20T14:10:05.415Z,6.40
2019-06-20T14:12:33.195Z,5.60
2019-06-20T14:15:00.710Z,8.53
2019-06-20T14:17:28.221Z,6.07
2019-06-20T14:19:56.658Z,5.60
2019-06-20T14:22:23.749Z,5.77
2019-06-20T14:24:51.276Z,5.00
2019-06-20T14:27:18.992Z,5.00
2019-06-20T14:29:47.223Z,6.00
2019-06-20T14:32:22.079Z,8.30
2019-06-20T14:34:45.409Z,10.00
2019-06-20T14:37:12.749Z,8.43
2019-06-20T14:39:39.855Z,7.70
2019-06-20T14:42:07.229Z,7.07
2019-06-20T14:44:34.628Z,7.73
2019-06-20T14:47:02.376Z,9.57
2019-06-20T14:49:29.506Z,6.27
2019-06-20T14:51:56.857Z,7.23
2019-06-20T14:54:23.916Z,7.10
2019-06-20T14:56:51.964Z,7.90
2019-06-20T14:59:19.820Z,6.70
2019-06-20T15:01:48.011Z,6.27
2019-06-20T15:04:16.329Z,7.03
2019-06-20T15:06:45.000Z,6.43
2019-06-20T15:09:12.792Z,6.93
2019-06-20T15:11:40.275Z,7.07
2019-06-20T15:14:08.003Z,7.93
2019-06-20T15:16:35.503Z,8.70
2019-06-20T15:19:02.921Z,8.17
2019-06-20T15:21:30.673Z,9.17
2019-06-20T15:23:58.801Z,8.47
2019-06-20T15:26:25.869Z,7.87
2019-06-20T15:28:54.812Z,7.77
2019-06-20T15:31:22.668Z,9.10
2019-06-20T15:33:51.500Z,8.03
2019-06-20T15:36:19.380Z,8.00
2019-06-20T15:38:48.182Z,8.43
2019-06-20T15:41:16.150Z,7.93
2019-06-20T15:43:43.700Z,8.83
2019-06-20T15:46:11.064Z,8.83
2019-06-20T15:48:38.174Z,7.63
2019-06-20T15:51:05.252Z,12.40
2019-06-20T15:53:32.635Z,9.70
2019-06-20T15:55:59.862Z,8.33
2019-06-20T15:58:26.926Z,8.87
2019-06-20T16:00:53.988Z,8.63
2019-06-20T16:03:21.447Z,8.23
2019-06-20T16:05:48.828Z,10.87
2019-06-20T16:08:16.180Z,8.00
2019-06-20T16:10:43.261Z,8.80
2019-06-20T16:13:10.576Z,12.60
2019-06-20T16:15:38.053Z,12.30
2019-06-20T16:18:05.094Z,9.70
2019-06-20T16:20:32.447Z,10.77
2019-06-20T16:23:00.494Z,9.60
2019-06-20T16:25:27.943Z,9.47
2019-06-20T16:27:56.077Z,10.03
2019-06-20T16:30:24.096Z,14.30
2019-06-20T16:32:51.604Z,16.87
2019-06-20T16:35:19.386Z,10.33
2019-06-20T16:37:46.507Z,9.53
2019-06-20T16:40:14.304Z,9.90
2019-06-20T16:42:42.992Z,10.97
2019-06-20T16:45:11.108Z,7.57
2019-06-20T16:47:38.595Z,8.17
2019-06-20T16:50:08.110Z,10.30
2019-06-20T16:52:36.071Z,12.20
2019-06-20T16:55:03.559Z,8.50
2019-06-20T16:57:31.488Z,7.50
2019-06-20T16:59:58.887Z,8.07
2019-06-20T17:02:26.269Z,8.50
2019-06-20T17:04:56.458Z,10.00
2019-06-20T17:07:22.611Z,9.30
2019-06-20T17:09:49.692Z,11.30
2019-06-20T17:12:17.292Z,9.33
2019-06-20T17:14:44.604Z,11.90
2019-06-20T17:17:11.646Z,11.77
2019-06-20T17:19:42.121Z,7.97
2019-06-20T17:22:08.423Z,9.90
2019-06-20T17:24:36.120Z,8.17
2019-06-20T17:27:06.924Z,8.57
2019-06-20T17:29:34.604Z,5.80
2019-06-20T17:32:02.625Z,5.57
2019-06-20T17:34:29.657Z,5.03
2019-06-20T17:36:57.054Z,7.10
2019-06-20T17:39:24.610Z,6.33
2019-06-20T17:41:55.598Z,8.20
2019-06-20T17:44:22.485Z,8.33
2019-06-20T17:46:52.575Z,7.87
2019-06-20T17:49:20.156Z,9.63
2019-06-20T17:51:47.599Z,10.90
2019-06-20T17:54:14.648Z,6.70
2019-06-20T17:56:41.712Z,9.00
2019-06-20T17:59:09.083Z,6.73
2019-06-20T18:01:37.843Z,8.80
2019-06-20T18:04:13.592Z,9.07
2019-06-20T18:06:34.714Z,6.77
2019-06-20T18:09:03.353Z,6.77
2019-06-20T18:11:30.395Z,6.37
2019-06-20T18:13:57.836Z,9.60
2019-06-20T18:16:25.813Z,7.17
2019-06-20T18:18:52.846Z,6.63
2019-06-20T18:21:20.456Z,6.30
2019-06-20T18:23:47.888Z,6.20
2019-06-20T18:26:15.260Z,6.73
2019-06-20T18:28:44.782Z,7.27
2019-06-20T18:31:12.896Z,4.83
2019-06-20T18:33:40.680Z,7.03
2019-06-20T18:36:08.296Z,5.20
2019-06-20T18:38:35.743Z,8.90
2019-06-20T18:41:03.114Z,6.63
2019-06-20T18:43:30.509Z,3.90
2019-06-20T18:45:57.907Z,4.47
2019-06-20T18:48:24.916Z,5.90
2019-06-20T18:50:52.424Z,5.70
2019-06-20T18:53:19.875Z,6.53
2019-06-20T18:55:47.398Z,6.27
2019-06-20T18:58:15.036Z,5.97
2019-06-20T19:00:42.632Z,6.63
2019-06-20T19:03:10.450Z,7.80
2019-06-20T19:05:37.797Z,7.20
2019-06-20T19:08:05.301Z,6.90
2019-06-20T19:10:33.666Z,6.90
2019-06-20T19:13:03.715Z,5.90
2019-06-20T19:15:31.736Z,7.93
2019-06-20T19:17:59.690Z,5.80
2019-06-20T19:20:26.703Z,7.90
2019-06-20T19:22:53.986Z,7.93
2019-06-20T19:25:21.640Z,8.23
2019-06-20T19:27:49.071Z,9.30
2019-06-20T19:30:17.216Z,7.67
2019-06-20T19:32:44.296Z,10.93
2019-06-20T19:35:13.902Z,9.30
2019-06-20T19:37:41.374Z,11.33
2019-06-20T19:40:09.632Z,9.33
2019-06-20T19:42:37.582Z,8.33
2019-06-20T19:45:06.241Z,7.47
2019-06-20T19:47:34.096Z,10.93
2019-06-20T19:50:01.640Z,8.90
2019-06-20T19:52:29.848Z,8.23
2019-06-20T19:54:58.026Z,13.90
2019-06-20T19:57:25.107Z,8.63
2019-06-20T19:59:54.687Z,9.67
2019-06-20T20:02:22.667Z,9.57
2019-06-20T20:04:50.520Z,7.73
2019-06-20T20:07:18.493Z,8.87
2019-06-20T20:09:46.213Z,9.03
2019-06-20T20:12:14.294Z,8.63
2019-06-20T20:14:42.040Z,9.50
2019-06-20T20:17:09.640Z,7.73
2019-06-20T20:19:37.660Z,9.43
2019-06-20T20:22:06.608Z,11.10
2019-06-20T20:24:33.955Z,8.60
2019-06-20T20:27:01.335Z,7.77
2019-06-20T20:29:28.438Z,8.47
2019-06-20T20:31:55.504Z,7.97
2019-06-20T20:34:23.707Z,9.90
2019-06-20T20:36:51.760Z,10.60
2019-06-20T20:39:19.928Z,10.30
2019-06-20T20:41:46.949Z,7.90
2019-06-20T20:44:14.033Z,9.20
2019-06-20T20:46:41.080Z,8.13
2019-06-20T20:49:08.539Z,9.50
2019-06-20T20:51:36.318Z,10.37
2019-06-20T20:54:03.885Z,20.33
2019-06-20T20:56:31.945Z,11.27
2019-06-20T20:58:59.642Z,10.70
2019-06-20T21:01:30.395Z,10.77
2019-06-20T21:03:58.658Z,13.03
2019-06-20T21:06:26.052Z,9.50
2019-06-20T21:08:53.360Z,12.57
2019-06-20T21:11:20.758Z,11.57
2019-06-20T21:13:48.161Z,14.63
2019-06-20T21:16:15.222Z,12.43
2019-06-20T21:18:42.635Z,13.37
2019-06-20T21:21:10.051Z,13.03
2019-06-20T21:23:37.486Z,14.77
2019-06-20T21:26:04.896Z,13.83
2019-06-20T21:28:32.723Z,14.67
2019-06-20T21:30:59.824Z,13.13
2019-06-20T21:33:27.181Z,13.27
2019-06-20T21:36:07.844Z,13.10
2019-06-20T21:38:24.965Z,12.97
2019-06-20T21:40:52.708Z,13.23
2019-06-20T21:43:20.076Z,12.10
2019-06-20T21:45:47.437Z,11.57
2019-06-20T21:48:15.487Z,12.17
2019-06-20T21:50:43.067Z,11.90
2019-06-20T21:53:10.826Z,11.10
2019-06-20T21:55:38.463Z,12.40
2019-06-20T21:58:06.346Z,11.90
2019-06-20T22:00:40.501Z,10.70
2019-06-20T22:03:08.329Z,11.07
2019-06-20T22:05:35.677Z,16.00
2019-06-20T22:08:02.885Z,13.83
2019-06-20T22:10:31.067Z,11.40
2019-06-20T22:12:58.463Z,11.60
2019-06-20T22:15:25.765Z,11.67
2019-06-20T22:17:52.850Z,13.47
2019-06-20T22:20:21.271Z,11.47
2019-06-20T22:22:48.961Z,13.10
2019-06-20T22:25:16.527Z,12.10
2019-06-20T22:27:43.914Z,12.37
2019-06-20T22:30:12.438Z,13.27
2019-06-20T22:32:40.071Z,12.23
2019-06-20T22:35:08.110Z,12.03
2019-06-20T22:37:35.515Z,16.40
2019-06-20T22:40:03.399Z,12.87
2019-06-20T22:42:30.829Z,11.87
2019-06-20T22:44:58.574Z,13.27
2019-06-20T22:47:25.562Z,12.70
2019-06-20T22:49:52.906Z,12.10
2019-06-20T22:52:19.973Z,11.23
2019-06-20T22:54:47.027Z,12.57
2019-06-20T22:57:14.359Z,13.83
2019-06-20T22:59:42.049Z,14.63
2019-06-20T23:02:09.492Z,12.10
2019-06-20T23:04:36.784Z,15.23
2019-06-20T23:07:04.174Z,12.57
2019-06-20T23:09:31.455Z,12.93
2019-06-20T23:11:59.490Z,12.27
2019-06-20T23:14:27.171Z,17.20
2019-06-20T23:16:54.250Z,12.60
2019-06-20T23:19:21.975Z,15.40
2019-06-20T23:21:49.350Z,15.90
2019-06-20T23:24:17.063Z,14.50
2019-06-20T23:26:44.057Z,11.60
2019-06-20T23:29:24.204Z,11.07
2019-06-20T23:31:52.634Z,11.50
2019-06-20T23:34:20.247Z,9.97
2019-06-20T23:36:47.695Z,12.83
2019-06-20T23:39:15.063Z,9.33
2019-06-20T23:41:43.125Z,11.77
2019-06-20T23:44:10.238Z,11.83
2019-06-20T23:46:37.570Z,10.30
2019-06-20T23:49:04.586Z,10.27
2019-06-20T23:51:33.536Z,15.50
2019-06-20T23:54:01.580Z,10.53
2019-06-20T23:56:29.278Z,11.10
2019-06-20T23:58:56.902Z,14.90
